createdAt,value
2019-06-15T00:09:13.119Z,4.1
2019-06-15T00:19:25.687Z,4
2019-06-15T00:29:38.853Z,3.3
2019-06-15T00:39:52.224Z,4.7
2019-06-15T00:50:04.249Z,5.5
2019-06-15T01:00:17.274Z,4
2019-06-15T01:10:30.634Z,3.7
2019-06-15T01:20:43.475Z,5.6
2019-06-15T01:30:56.046Z,3.8
2019-06-15T01:41:08.376Z,6.4
2019-06-15T01:51:21.401Z,3.2
2019-06-15T02:01:34.084Z,4.6
2019-06-15T02:11:45.508Z,4.3
2019-06-15T02:21:57.259Z,3.6
2019-06-15T02:32:10.041Z,5
2019-06-15T02:42:22.591Z,2.6
2019-06-15T02:52:34.908Z,2.4
2019-06-15T03:02:47.503Z,4.2
2019-06-15T03:12:59.248Z,2.5
2019-06-15T03:23:12.617Z,4.5
2019-06-15T03:33:24.648Z,3.3
2019-06-15T03:43:36.677Z,2
2019-06-15T03:53:48.355Z,4.2
2019-06-15T04:04:00.078Z,3.6
2019-06-15T04:14:12.910Z,3
2019-06-15T04:24:25.753Z,3
2019-06-15T04:34:38.070Z,2.7
2019-06-15T04:44:51.427Z,2
2019-06-15T04:55:04.314Z,2.3
2019-06-15T05:05:17.436Z,4.6
2019-06-15T05:15:29.742Z,1.8
2019-06-15T05:25:41.826Z,2.5
2019-06-15T05:35:56.342Z,2.2
2019-06-15T05:46:06.908Z,3.9
2019-06-15T05:56:19.542Z,2.6
2019-06-15T06:06:31.842Z,3
2019-06-15T06:16:43.697Z,3.2
2019-06-15T06:26:56.101Z,3.6
2019-06-15T06:37:08.357Z,3.4
2019-06-15T06:47:20.899Z,3.1
2019-06-15T06:57:33.456Z,3
2019-06-15T07:07:45.247Z,2.8
2019-06-15T07:17:57.554Z,3.1
2019-06-15T07:28:10.664Z,1.8
2019-06-15T07:38:23.221Z,2.4
2019-06-15T07:48:41.348Z,1.2
2019-06-15T07:59:01.129Z,1.8
2019-06-15T08:08:58.592Z,1.2
2019-06-15T08:19:13.572Z,1.1
2019-06-15T08:29:24.968Z,1.6
2019-06-15T08:39:35.886Z,1.3
2019-06-15T08:49:47.938Z,1.2
2019-06-15T08:59:59.978Z,2.1
2019-06-15T09:10:11.630Z,1.5
2019-06-15T09:20:23.401Z,1.1
2019-06-15T09:30:35.155Z,1.8
2019-06-15T09:40:48.562Z,1.9
2019-06-15T09:50:59.436Z,1.6
2019-06-15T10:01:11.580Z,1.2
2019-06-15T10:11:24.484Z,0.6
2019-06-15T10:21:35.961Z,2.6
2019-06-15T10:31:48.266Z,1.4
2019-06-15T10:42:00.074Z,1.1
2019-06-15T10:52:12.721Z,1.2
2019-06-15T11:02:24.068Z,1
2019-06-15T11:12:47.039Z,1.1
2019-06-15T11:22:44.935Z,1.9
2019-06-15T11:33:00.264Z,1.5
2019-06-15T11:43:11.279Z,0.2
2019-06-15T11:53:23.032Z,1.8
2019-06-15T12:03:35.856Z,1.4
2019-06-15T12:13:47.970Z,3.6
2019-06-15T12:24:00.282Z,1.2
2019-06-15T12:34:12.230Z,1.4
2019-06-15T12:44:26.991Z,1.4
2019-06-15T12:54:35.994Z,1.5
2019-06-15T13:04:47.330Z,1.1
2019-06-15T13:14:58.580Z,1.6
2019-06-15T13:25:10.703Z,1.4
2019-06-15T13:35:21.980Z,1.9
2019-06-15T13:45:32.901Z,1.6
2019-06-15T13:55:45.255Z,0.6
2019-06-15T14:05:57.333Z,0.7
2019-06-15T14:16:09.927Z,1
2019-06-15T14:26:22.161Z,1.3
2019-06-15T14:36:34.714Z,2
2019-06-15T14:46:47.026Z,2.6
2019-06-15T14:56:58.043Z,1.4
2019-06-15T15:07:09.665Z,1.1
2019-06-15T15:17:20.012Z,1.1
2019-06-15T15:27:30.728Z,1.2
2019-06-15T15:37:41.957Z,1.7
2019-06-15T15:47:52.694Z,1.3
2019-06-15T15:58:03.236Z,1.5
2019-06-15T16:08:16.587Z,1.6
2019-06-15T16:18:22.363Z,2.1
2019-06-15T16:28:36.796Z,1.8
2019-06-15T16:38:52.109Z,1.8
2019-06-15T16:49:00.633Z,1.7
2019-06-15T16:59:14.871Z,1.9
2019-06-15T17:09:27.792Z,1.9
2019-06-15T17:19:37.708Z,2.5
2019-06-15T17:29:49.067Z,1.4
2019-06-15T17:40:02.174Z,1.2
2019-06-15T17:50:09.831Z,2.2
2019-06-15T18:00:19.639Z,1.6
2019-06-15T18:10:29.367Z,3.4
2019-06-15T18:20:39.647Z,2.6
2019-06-15T18:30:49.359Z,1.8
2019-06-15T18:41:02.141Z,2
2019-06-15T18:51:16.749Z,3.2
2019-06-15T19:01:21.019Z,3
2019-06-15T19:11:34.166Z,1.8
2019-06-15T19:21:49.675Z,2
2019-06-15T19:31:57.411Z,1.4
2019-06-15T19:42:07.735Z,1.9
2019-06-15T19:52:19.977Z,1.9
2019-06-15T20:02:28.343Z,2
2019-06-15T20:12:50.796Z,2.9
2019-06-15T20:22:50.454Z,2
2019-06-15T20:33:04.283Z,2.8
2019-06-15T20:43:17.350Z,1.7
2019-06-15T20:53:23.256Z,3
2019-06-15T21:03:36.971Z,2.4
2019-06-15T21:13:42.959Z,2.2
2019-06-15T21:23:57.142Z,1.9
2019-06-15T21:34:03.834Z,3
2019-06-15T21:44:16.971Z,1.5
2019-06-15T21:54:26.953Z,1.2
2019-06-15T22:04:39.937Z,1.2
2019-06-15T22:14:50.249Z,0.1
2019-06-15T22:25:01.685Z,0
2019-06-15T22:35:16.578Z,0.7
2019-06-15T22:45:22.493Z,0.9
2019-06-15T22:55:37.094Z,0.2
2019-06-15T23:05:43.066Z,1
2019-06-15T23:15:59.071Z,0.7
2019-06-15T23:26:09.187Z,1.4
2019-06-15T23:36:19.400Z,1.4
2019-06-15T23:46:30.139Z,0.2
2019-06-15T23:56:46.391Z,1.3
